CheckWX is a tool to help pilots better visualize weather data.  It is not intended as a substitute for an official pre-flight weather briefing.

12:20:41 UTC

KGSH METAR
Goshen Municipal Airport
Goshen, Indiana, USA
Current

28 mins ago

KGSH 191153Z AUTO 21003KT 5SM BR OVC019 02/01 A2976 RMK AO2 SLP085 T00220011 10028 20017 55001 $
Observed
Nov-19 @ 11:53 UTC
Wind
  • 210° at 3 KTS
Visibility
5 SM
Flight Rules
MVFR
Conditions
Mist
Cloud Levels
  • Overcast at 1,900' AGL
Temperature
C / 36°F
Dewpoint
C / 34°F
Humidity
93%
Altimeter
29.76" Hg
Pressure
1007.82 hPa
Previous

1 hour ago

KGSH 191053Z AUTO 22003KT 4SM BR OVC019 02/01 A2976 RMK AO2 SLP083 T00220011 $
Observed
Nov-19 @ 10:53 UTC
Wind
  • 220° at 3 KTS
Visibility
4 SM
Flight Rules
MVFR
Conditions
Mist
Cloud Levels
  • Overcast at 1,900' AGL
Temperature
C / 36°F
Dewpoint
C / 34°F
Humidity
93%
Altimeter
29.76" Hg
Pressure
1007.82 hPa
Previous

2 hours ago

KGSH 190953Z AUTO 19003KT 5SM BR FEW010 BKN018 OVC027 02/01 A2975 RMK AO2 SLP081 T00220011 $
Observed
Nov-19 @ 09:53 UTC
Wind
  • 190° at 3 KTS
Visibility
5 SM
Flight Rules
MVFR
Conditions
Mist
Cloud Levels
  • Few at 1,000' AGL
  • Broken at 1,800' AGL
  • Overcast at 2,700' AGL
Temperature
C / 36°F
Dewpoint
C / 34°F
Humidity
93%
Altimeter
29.75" Hg
Pressure
1007.42 hPa